createdAt,value
2023-03-04T00:01:31.398Z,10.49
2023-03-04T00:04:00.616Z,10.28
2023-03-04T00:06:28.440Z,10.10
2023-03-04T00:08:56.402Z,10.03
2023-03-04T00:11:24.543Z,10.42
2023-03-04T00:13:52.343Z,10.97
2023-03-04T00:16:20.267Z,10.74
2023-03-04T00:18:48.164Z,10.62
2023-03-04T00:21:17.590Z,10.43
2023-03-04T00:23:45.430Z,10.13
2023-03-04T00:26:13.480Z,10.64
2023-03-04T00:28:43.415Z,10.36
2023-03-04T00:31:11.550Z,10.73
2023-03-04T00:33:40.308Z,10.39
2023-03-04T00:36:08.976Z,10.64
2023-03-04T00:38:38.753Z,10.85
2023-03-04T00:41:06.758Z,10.70
2023-03-04T00:43:35.343Z,10.84
2023-03-04T00:46:03.330Z,10.97
2023-03-04T00:48:31.642Z,9.74
2023-03-04T00:50:59.525Z,10.55
2023-03-04T00:53:27.621Z,10.65
2023-03-04T00:55:57.210Z,11.32
2023-03-04T00:58:25.165Z,10.89
2023-03-04T01:00:53.072Z,9.52
2023-03-04T01:03:21.041Z,10.39
2023-03-04T01:05:49.277Z,10.77
2023-03-04T01:08:17.660Z,10.66
2023-03-04T01:10:45.897Z,10.97
2023-03-04T01:13:15.604Z,11.11
2023-03-04T01:15:44.575Z,10.51
2023-03-04T01:18:12.947Z,10.75
2023-03-04T01:20:42.523Z,10.49
2023-03-04T01:23:10.302Z,10.92
2023-03-04T01:25:38.161Z,10.39
2023-03-04T01:28:06.025Z,10.22
2023-03-04T01:30:35.189Z,10.86
2023-03-04T01:33:03.104Z,10.35
2023-03-04T01:35:31.029Z,10.87
2023-03-04T01:37:59.042Z,11.25
2023-03-04T01:40:27.390Z,10.74
2023-03-04T01:42:55.962Z,10.80
2023-03-04T01:45:24.185Z,10.98
2023-03-04T01:47:53.867Z,11.07
2023-03-04T01:50:28.183Z,11.02
2023-03-04T01:52:55.933Z,11.56
2023-03-04T01:55:24.707Z,11.09
2023-03-04T01:57:53.415Z,10.61
2023-03-04T02:00:25.721Z,10.95
2023-03-04T02:02:59.078Z,11.14
2023-03-04T02:05:27.218Z,10.46
2023-03-04T02:07:57.175Z,11.03
2023-03-04T02:10:25.627Z,11.76
2023-03-04T02:12:54.686Z,11.08
2023-03-04T02:15:23.337Z,11.13
2023-03-04T02:17:51.441Z,11.12
2023-03-04T02:20:33.453Z,10.98
2023-03-04T02:23:09.009Z,10.75
2023-03-04T02:25:42.777Z,10.78
2023-03-04T02:28:12.401Z,10.82
2023-03-04T02:30:40.476Z,10.79
2023-03-04T02:33:11.574Z,10.38
2023-03-04T02:35:39.449Z,10.43
2023-03-04T02:38:07.427Z,10.36
2023-03-04T02:40:36.216Z,10.91
2023-03-04T02:43:04.001Z,10.12
2023-03-04T02:45:37.139Z,11.15
2023-03-04T02:48:07.753Z,10.44
2023-03-04T02:50:40.017Z,10.95
2023-03-04T02:53:08.423Z,10.97
2023-03-04T02:55:36.766Z,10.67
2023-03-04T02:58:05.152Z,11.10
2023-03-04T03:00:34.693Z,9.95
2023-03-04T03:03:03.214Z,10.73
2023-03-04T03:05:32.857Z,10.76
2023-03-04T03:08:01.328Z,10.67
2023-03-04T03:10:30.037Z,11.10
2023-03-04T03:12:58.575Z,11.16
2023-03-04T03:15:26.371Z,11.56
2023-03-04T03:17:58.308Z,11.11
2023-03-04T03:20:26.105Z,11.40
2023-03-04T03:22:53.988Z,11.12
2023-03-04T03:25:21.771Z,11.16
2023-03-04T03:27:49.738Z,10.73
2023-03-04T03:30:19.793Z,10.90
2023-03-04T03:32:47.556Z,11.58
2023-03-04T03:35:16.795Z,11.03
2023-03-04T03:37:44.593Z,10.93
2023-03-04T03:40:13.746Z,10.40
2023-03-04T03:42:41.631Z,10.62
2023-03-04T03:45:10.227Z,10.60
2023-03-04T03:47:38.117Z,10.74
2023-03-04T03:50:06.786Z,10.96
2023-03-04T03:52:35.954Z,10.99
2023-03-04T03:55:04.026Z,10.93
2023-03-04T03:57:31.890Z,11.28
2023-03-04T03:59:59.758Z,10.94
2023-03-04T04:02:27.743Z,11.37
2023-03-04T04:04:55.636Z,10.94
2023-03-04T04:07:23.670Z,10.75
2023-03-04T04:09:52.903Z,11.08
2023-03-04T04:12:21.121Z,11.21
2023-03-04T04:14:48.909Z,11.65
2023-03-04T04:17:17.061Z,11.22
2023-03-04T04:19:44.952Z,11.36
2023-03-04T04:22:17.384Z,11.30
2023-03-04T04:24:45.505Z,11.09
2023-03-04T04:27:14.901Z,10.64
2023-03-04T04:29:43.230Z,11.04
2023-03-04T04:32:13.282Z,10.38
2023-03-04T04:34:41.428Z,10.90
2023-03-04T04:37:09.461Z,10.85
2023-03-04T04:39:37.601Z,10.54
2023-03-04T04:42:05.695Z,10.66
2023-03-04T04:44:35.298Z,10.66
2023-03-04T04:47:03.389Z,10.78
2023-03-04T04:49:31.196Z,10.58
2023-03-04T04:51:59.378Z,10.33
2023-03-04T04:54:27.566Z,10.18
2023-03-04T04:56:55.508Z,11.09
2023-03-04T04:59:23.722Z,11.16
2023-03-04T05:01:53.245Z,10.36
2023-03-04T05:04:21.332Z,10.74
2023-03-04T05:06:49.116Z,11.04
2023-03-04T05:09:17.197Z,10.85
2023-03-04T05:11:44.979Z,10.82
2023-03-04T05:14:12.680Z,10.57
2023-03-04T05:16:40.533Z,11.36
2023-03-04T05:19:09.685Z,10.98
2023-03-04T05:21:37.397Z,11.43
2023-03-04T05:24:05.397Z,11.24
2023-03-04T05:26:33.265Z,10.92
2023-03-04T05:29:01.052Z,10.77
2023-03-04T05:31:28.861Z,10.61
2023-03-04T05:33:56.654Z,10.29
2023-03-04T05:36:25.775Z,10.78
2023-03-04T05:38:54.220Z,10.80
2023-03-04T05:41:22.867Z,10.61
2023-03-04T05:43:51.411Z,10.48
2023-03-04T05:46:25.246Z,10.30
2023-03-04T05:48:54.283Z,10.01
2023-03-04T05:51:22.664Z,10.31
2023-03-04T05:53:52.039Z,10.44
2023-03-04T05:56:21.195Z,10.91
2023-03-04T05:58:49.215Z,10.38
2023-03-04T06:01:18.153Z,11.28
2023-03-04T06:03:48.546Z,10.20
2023-03-04T06:06:16.707Z,10.81
2023-03-04T06:08:44.926Z,10.53
2023-03-04T06:11:14.481Z,10.76
2023-03-04T06:13:42.636Z,10.56
2023-03-04T06:16:10.601Z,10.36
2023-03-04T06:18:38.386Z,10.69
2023-03-04T06:21:06.684Z,10.12
2023-03-04T06:23:34.482Z,10.75
2023-03-04T06:26:02.393Z,10.38
2023-03-04T06:28:31.573Z,10.57
2023-03-04T06:30:59.567Z,10.76
2023-03-04T06:33:27.364Z,10.48
2023-03-04T06:35:56.142Z,10.59
2023-03-04T06:38:24.385Z,9.92
2023-03-04T06:40:52.422Z,10.97
2023-03-04T06:43:20.457Z,10.71
2023-03-04T06:45:50.409Z,10.48
2023-03-04T06:48:18.308Z,10.94
2023-03-04T06:50:46.455Z,10.48
2023-03-04T06:53:14.452Z,10.99
2023-03-04T06:55:43.204Z,10.64
2023-03-04T06:58:11.250Z,9.73
2023-03-04T07:00:39.098Z,10.91
2023-03-04T07:03:08.557Z,10.80
2023-03-04T07:05:36.694Z,11.25
2023-03-04T07:08:04.823Z,11.00
2023-03-04T07:10:32.830Z,10.46
2023-03-04T07:13:00.700Z,11.01
2023-03-04T07:15:29.923Z,10.73
2023-03-04T07:17:58.412Z,10.60
2023-03-04T07:20:30.669Z,10.74
2023-03-04T07:22:59.531Z,10.87
2023-03-04T07:25:27.712Z,10.34
2023-03-04T07:27:55.419Z,10.78
2023-03-04T07:30:23.249Z,11.09
2023-03-04T07:32:51.803Z,11.02
2023-03-04T07:35:19.752Z,10.83
2023-03-04T07:37:48.914Z,10.66
2023-03-04T07:40:17.049Z,11.12
2023-03-04T07:42:45.297Z,11.24
2023-03-04T07:45:16.513Z,11.02
2023-03-04T07:47:44.790Z,11.18
2023-03-04T07:50:14.165Z,10.97
2023-03-04T07:52:44.573Z,9.99
2023-03-04T07:55:15.590Z,10.72
2023-03-04T07:57:44.725Z,11.42
2023-03-04T08:00:16.509Z,10.86
2023-03-04T08:02:44.635Z,10.75
2023-03-04T08:05:12.430Z,11.27
2023-03-04T08:07:40.466Z,11.31
2023-03-04T08:10:09.230Z,11.54
2023-03-04T08:12:38.504Z,11.02
2023-03-04T08:15:07.676Z,11.70
2023-03-04T08:17:37.014Z,10.86
2023-03-04T08:20:05.734Z,11.56
2023-03-04T08:22:34.293Z,11.13
2023-03-04T08:25:03.364Z,11.30
2023-03-04T08:27:38.789Z,11.03
2023-03-04T08:30:07.709Z,10.33
2023-03-04T08:32:35.741Z,10.35
2023-03-04T08:35:03.769Z,11.21
2023-03-04T08:37:31.627Z,9.68
2023-03-04T08:39:59.687Z,11.04
2023-03-04T08:42:28.263Z,10.62
2023-03-04T08:44:57.390Z,11.05
2023-03-04T08:47:25.399Z,11.41
2023-03-04T08:49:55.479Z,10.82
2023-03-04T08:52:24.934Z,10.78
2023-03-04T08:54:55.868Z,10.46
2023-03-04T08:57:41.487Z,10.75
2023-03-04T09:00:22.319Z,11.12
2023-03-04T09:02:50.732Z,11.10
2023-03-04T09:05:18.782Z,11.39
2023-03-04T09:07:47.171Z,11.13
2023-03-04T09:10:15.231Z,10.78
2023-03-04T09:12:43.078Z,10.86
2023-03-04T09:15:12.728Z,10.68
2023-03-04T09:17:41.620Z,10.93
2023-03-04T09:20:12.231Z,10.81
2023-03-04T09:22:40.359Z,11.08
2023-03-04T09:25:14.736Z,11.07
2023-03-04T09:27:43.130Z,11.67
2023-03-04T09:30:13.656Z,12.08
2023-03-04T09:32:41.912Z,12.29
2023-03-04T09:35:11.084Z,11.65
2023-03-04T09:37:41.300Z,11.17
2023-03-04T09:40:17.238Z,11.72
2023-03-04T09:42:52.220Z,10.94
2023-03-04T09:45:23.369Z,11.97
2023-03-04T09:47:54.194Z,11.88
2023-03-04T09:50:23.324Z,11.43
2023-03-04T09:53:05.386Z,11.45
2023-03-04T09:55:38.341Z,11.57
2023-03-04T09:58:16.661Z,11.34
2023-03-04T10:00:48.589Z,9.97
2023-03-04T10:03:21.925Z,10.93
2023-03-04T10:05:57.557Z,11.33
2023-03-04T10:08:39.249Z,11.60
2023-03-04T10:11:14.254Z,11.67
2023-03-04T10:13:53.519Z,11.59
2023-03-04T10:16:28.912Z,12.04
2023-03-04T10:19:00.772Z,12.32
2023-03-04T10:21:34.491Z,11.58
2023-03-04T10:24:06.761Z,10.76
2023-03-04T10:26:35.257Z,11.59
2023-03-04T10:29:09.825Z,12.09
2023-03-04T10:31:42.098Z,11.90
2023-03-04T10:34:12.946Z,12.20
2023-03-04T10:36:51.124Z,11.53
2023-03-04T10:39:23.035Z,11.84
2023-03-04T10:42:07.236Z,11.99
2023-03-04T10:44:38.601Z,12.53
2023-03-04T10:47:11.329Z,11.29
2023-03-04T10:49:51.821Z,12.95
2023-03-04T10:52:28.355Z,12.59
2023-03-04T10:54:58.053Z,11.80
2023-03-04T10:57:34.405Z,12.36
2023-03-04T11:00:03.510Z,12.11
2023-03-04T11:02:34.858Z,12.20
2023-03-04T11:05:19.816Z,12.26
2023-03-04T11:07:56.680Z,11.73
2023-03-04T11:10:32.923Z,13.12
2023-03-04T11:13:02.895Z,12.64
2023-03-04T11:15:46.024Z,10.90
2023-03-04T11:18:16.946Z,10.43
2023-03-04T11:20:49.422Z,9.86
2023-03-04T11:23:20.876Z,9.85
2023-03-04T11:25:53.782Z,11.12
2023-03-04T11:28:29.605Z,9.73
2023-03-04T11:31:02.279Z,9.99
2023-03-04T11:33:43.158Z,10.03
2023-03-04T11:36:24.334Z,10.77
2023-03-04T11:38:53.107Z,10.86
2023-03-04T11:41:26.668Z,12.25
2023-03-04T11:43:55.404Z,12.61
2023-03-04T11:46:39.688Z,11.37
2023-03-04T11:49:30.213Z,10.88
2023-03-04T11:52:06.571Z,10.66
2023-03-04T11:54:41.999Z,10.54
2023-03-04T11:57:24.639Z,10.42
2023-03-04T12:00:03.664Z,12.45
2023-03-04T12:02:47.811Z,12.85
2023-03-04T12:05:27.306Z,13.03
2023-03-04T12:08:16.326Z,14.15
2023-03-04T12:10:54.595Z,12.79
2023-03-04T12:14:11.381Z,14.37
2023-03-04T12:16:54.300Z,14.65
2023-03-04T12:19:35.144Z,14.27
2023-03-04T12:22:24.313Z,14.48
2023-03-04T12:25:22.196Z,12.38
2023-03-04T12:27:59.742Z,12.24
2023-03-04T12:30:41.914Z,13.31
2023-03-04T12:33:21.208Z,12.85
2023-03-04T12:35:57.562Z,13.50
2023-03-04T12:39:00.104Z,13.07
2023-03-04T12:41:41.961Z,14.44
2023-03-04T12:44:20.968Z,14.06
2023-03-04T12:47:14.467Z,13.85
2023-03-04T12:49:53.172Z,12.64
2023-03-04T12:52:31.521Z,12.53
2023-03-04T12:55:04.936Z,11.25
2023-03-04T12:57:34.363Z,12.89
2023-03-04T13:00:16.045Z,12.43
2023-03-04T13:02:54.616Z,11.76
2023-03-04T13:05:41.524Z,9.95
2023-03-04T13:08:21.546Z,10.15
2023-03-04T13:10:52.335Z,11.20
2023-03-04T13:13:39.935Z,11.25
2023-03-04T13:16:28.626Z,11.49
2023-03-04T13:18:58.649Z,10.98
2023-03-04T13:21:30.218Z,10.99
2023-03-04T13:23:59.849Z,11.48
2023-03-04T13:26:34.409Z,12.19
2023-03-04T13:29:32.641Z,12.86
2023-03-04T13:32:03.748Z,11.03
2023-03-04T13:34:50.098Z,12.15
2023-03-04T13:37:32.286Z,11.91
2023-03-04T13:40:35.717Z,12.53
2023-03-04T13:43:27.166Z,12.89
2023-03-04T13:45:55.860Z,10.97
2023-03-04T13:48:32.440Z,12.89
2023-03-04T13:51:00.921Z,12.69
2023-03-04T13:53:43.736Z,11.29
2023-03-04T13:56:37.778Z,11.81
2023-03-04T13:59:32.370Z,12.35
2023-03-04T14:02:03.129Z,12.06
2023-03-04T14:04:37.335Z,10.99
2023-03-04T14:07:19.853Z,12.58
2023-03-04T14:09:56.418Z,11.81
2023-03-04T14:12:25.257Z,11.76
2023-03-04T14:14:57.481Z,11.95
2023-03-04T14:17:29.335Z,11.85
2023-03-04T14:19:57.384Z,12.76
2023-03-04T14:22:28.123Z,12.01
2023-03-04T14:25:01.959Z,12.54
2023-03-04T14:27:33.035Z,13.10
2023-03-04T14:30:03.837Z,12.53
2023-03-04T14:32:35.164Z,11.97
2023-03-04T14:35:11.261Z,10.67
2023-03-04T14:37:48.649Z,11.10
2023-03-04T14:40:24.191Z,9.65
2023-03-04T14:42:57.953Z,10.12
2023-03-04T14:45:28.716Z,10.15
2023-03-04T14:48:00.570Z,10.57
2023-03-04T14:50:29.950Z,11.16
2023-03-04T14:53:23.119Z,12.23
2023-03-04T14:56:00.038Z,12.10
2023-03-04T14:58:31.143Z,11.58
2023-03-04T15:01:15.524Z,11.65
2023-03-04T15:03:46.157Z,11.30
2023-03-04T15:06:20.494Z,12.60
2023-03-04T15:08:59.449Z,11.50
2023-03-04T15:11:29.741Z,11.68
2023-03-04T15:13:59.246Z,11.89
2023-03-04T15:16:31.396Z,11.55
2023-03-04T15:19:03.233Z,11.75
2023-03-04T15:21:41.014Z,10.24
2023-03-04T15:24:12.944Z,10.23
2023-03-04T15:26:43.956Z,10.36
2023-03-04T15:29:15.829Z,10.54
2023-03-04T15:31:48.334Z,10.00
2023-03-04T15:34:18.412Z,11.30
2023-03-04T15:36:49.931Z,11.32
2023-03-04T15:39:19.895Z,10.43
2023-03-04T15:41:48.360Z,10.84
2023-03-04T15:44:17.013Z,11.51
2023-03-04T15:46:46.418Z,11.34
2023-03-04T15:49:18.716Z,11.75
2023-03-04T15:51:46.705Z,11.29
2023-03-04T15:54:15.399Z,11.34
2023-03-04T15:56:43.467Z,10.92
2023-03-04T15:59:14.456Z,11.05
2023-03-04T16:01:43.282Z,10.32
2023-03-04T16:04:15.927Z,11.29
2023-03-04T16:06:46.006Z,9.98
2023-03-04T16:09:17.719Z,10.70
2023-03-04T16:11:47.724Z,11.20
2023-03-04T16:14:17.071Z,10.86
2023-03-04T16:16:46.808Z,11.52
2023-03-04T16:19:16.375Z,11.41
2023-03-04T16:21:44.817Z,11.34
2023-03-04T16:24:18.405Z,10.97
2023-03-04T16:26:47.054Z,10.97
2023-03-04T16:29:16.467Z,10.75
2023-03-04T16:31:44.837Z,10.14
2023-03-04T16:34:16.026Z,9.11
2023-03-04T16:36:45.735Z,10.40
2023-03-04T16:39:21.240Z,8.49
2023-03-04T16:41:50.037Z,10.34
2023-03-04T16:44:18.711Z,10.32
2023-03-04T16:46:46.828Z,10.01
2023-03-04T16:49:15.727Z,10.11
2023-03-04T16:51:48.099Z,9.83
2023-03-04T16:54:24.782Z,9.94
2023-03-04T16:56:53.476Z,10.86
2023-03-04T16:59:21.814Z,10.96
2023-03-04T17:01:51.786Z,10.68
2023-03-04T17:04:20.594Z,11.13
2023-03-04T17:06:51.815Z,10.35
2023-03-04T17:09:22.921Z,10.79
2023-03-04T17:11:58.826Z,10.51
2023-03-04T17:14:35.873Z,10.46
2023-03-04T17:17:12.857Z,10.56
2023-03-04T17:19:44.202Z,9.71
2023-03-04T17:22:19.490Z,10.15
2023-03-04T17:24:50.240Z,10.20
2023-03-04T17:27:22.226Z,10.77
2023-03-04T17:29:54.054Z,10.33
2023-03-04T17:32:23.856Z,10.97
2023-03-04T17:35:00.841Z,10.41
2023-03-04T17:37:31.590Z,10.64
2023-03-04T17:40:00.820Z,11.07
2023-03-04T17:42:30.930Z,10.94
2023-03-04T17:45:03.298Z,10.60
2023-03-04T17:47:31.688Z,10.35
2023-03-04T17:49:59.872Z,11.03
2023-03-04T17:52:29.076Z,10.70
2023-03-04T17:54:58.813Z,10.33
2023-03-04T17:57:27.365Z,9.68
2023-03-04T17:59:56.777Z,10.45
2023-03-04T18:02:26.278Z,10.43
2023-03-04T18:04:56.077Z,10.77
2023-03-04T18:07:24.664Z,10.16
2023-03-04T18:09:53.868Z,10.44
2023-03-04T18:12:32.171Z,10.27
2023-03-04T18:15:07.138Z,10.10
2023-03-04T18:17:36.002Z,10.38
2023-03-04T18:20:05.744Z,10.10
2023-03-04T18:22:35.023Z,9.94
2023-03-04T18:25:04.082Z,9.95
2023-03-04T18:27:33.362Z,10.06
2023-03-04T18:30:01.262Z,10.46
2023-03-04T18:32:36.310Z,10.63
2023-03-04T18:35:14.395Z,9.93
2023-03-04T18:37:45.219Z,10.09
2023-03-04T18:40:17.293Z,9.95
2023-03-04T18:42:46.572Z,10.38
2023-03-04T18:45:16.260Z,10.56
2023-03-04T18:47:48.662Z,10.01
2023-03-04T18:50:16.681Z,9.71
2023-03-04T18:52:45.235Z,9.07
2023-03-04T18:55:14.168Z,9.65
2023-03-04T18:57:45.905Z,10.09
2023-03-04T19:00:19.971Z,9.43
2023-03-04T19:02:52.162Z,8.92
2023-03-04T19:05:22.189Z,9.73
2023-03-04T19:07:50.188Z,9.39
2023-03-04T19:10:19.732Z,9.95
2023-03-04T19:12:47.697Z,10.05
2023-03-04T19:15:18.206Z,9.72
2023-03-04T19:17:46.627Z,9.76
2023-03-04T19:20:15.808Z,9.59
2023-03-04T19:22:44.410Z,8.40
2023-03-04T19:25:13.031Z,9.63
2023-03-04T19:27:41.095Z,9.94
2023-03-04T19:30:11.422Z,10.10
2023-03-04T19:32:40.660Z,9.89
2023-03-04T19:35:08.901Z,9.80
2023-03-04T19:37:37.038Z,9.71
2023-03-04T19:40:05.403Z,10.15
2023-03-04T19:42:34.112Z,9.17
2023-03-04T19:45:09.211Z,9.67
2023-03-04T19:47:37.818Z,9.00
2023-03-04T19:50:10.928Z,9.49
2023-03-04T19:52:39.206Z,9.63
2023-03-04T19:55:07.954Z,9.50
2023-03-04T19:57:36.167Z,9.76
2023-03-04T20:00:05.175Z,9.76
2023-03-04T20:02:33.444Z,9.74
2023-03-04T20:05:02.201Z,9.81
2023-03-04T20:07:32.668Z,9.72
2023-03-04T20:10:00.813Z,9.61
2023-03-04T20:12:31.295Z,9.39
2023-03-04T20:15:00.146Z,8.71
2023-03-04T20:17:28.301Z,9.67
2023-03-04T20:19:56.180Z,9.63
2023-03-04T20:22:24.120Z,9.43
2023-03-04T20:24:54.844Z,8.82
2023-03-04T20:27:22.855Z,9.44
2023-03-04T20:29:50.821Z,9.16
2023-03-04T20:32:18.814Z,9.47
2023-03-04T20:34:47.628Z,9.23
2023-03-04T20:37:15.624Z,9.24
2023-03-04T20:39:43.625Z,9.49
2023-03-04T20:42:13.194Z,10.03
2023-03-04T20:44:41.254Z,9.15
2023-03-04T20:47:09.451Z,9.38
2023-03-04T20:49:39.990Z,9.51
2023-03-04T20:52:07.948Z,9.07
2023-03-04T20:54:37.243Z,9.49
2023-03-04T20:57:06.818Z,8.73
2023-03-04T20:59:37.888Z,9.26
2023-03-04T21:02:06.558Z,9.55
2023-03-04T21:04:35.200Z,9.46
2023-03-04T21:07:03.379Z,10.16
2023-03-04T21:09:31.343Z,9.63
2023-03-04T21:12:00.828Z,8.96
2023-03-04T21:14:30.756Z,9.28
2023-03-04T21:17:02.278Z,8.84
2023-03-04T21:19:32.613Z,9.39
2023-03-04T21:22:01.516Z,9.30
2023-03-04T21:24:30.785Z,8.72
2023-03-04T21:26:59.010Z,9.43
2023-03-04T21:29:28.110Z,9.25
2023-03-04T21:32:04.723Z,9.11
2023-03-04T21:34:41.537Z,9.65
2023-03-04T21:37:09.989Z,9.35
2023-03-04T21:39:38.026Z,9.54
2023-03-04T21:42:06.444Z,9.64
2023-03-04T21:44:48.669Z,9.81
2023-03-04T21:47:17.870Z,9.44
2023-03-04T21:49:47.624Z,9.31
2023-03-04T21:52:15.648Z,9.69
2023-03-04T21:54:43.411Z,9.17
2023-03-04T21:57:11.586Z,9.29
2023-03-04T21:59:40.101Z,9.35
2023-03-04T22:02:08.472Z,9.13
2023-03-04T22:04:36.477Z,9.12
2023-03-04T22:07:05.596Z,9.51
2023-03-04T22:09:33.516Z,9.97
2023-03-04T22:12:01.253Z,10.01
2023-03-04T22:14:29.637Z,10.21
2023-03-04T22:16:57.682Z,9.56
2023-03-04T22:19:28.053Z,9.69
2023-03-04T22:21:56.231Z,9.78
2023-03-04T22:24:26.358Z,9.51
2023-03-04T22:26:54.423Z,8.41
2023-03-04T22:29:23.484Z,8.87
2023-03-04T22:31:51.432Z,9.66
2023-03-04T22:34:19.765Z,9.22
2023-03-04T22:36:49.225Z,8.94
2023-03-04T22:39:19.632Z,9.11
2023-03-04T22:41:49.077Z,8.91
2023-03-04T22:44:17.164Z,8.61
2023-03-04T22:46:45.193Z,8.95
2023-03-04T22:49:14.814Z,9.19
2023-03-04T22:51:44.679Z,8.71
2023-03-04T22:54:13.922Z,8.79
2023-03-04T22:56:41.857Z,8.75
2023-03-04T22:59:11.528Z,8.01
2023-03-04T23:01:39.589Z,8.89
2023-03-04T23:04:07.644Z,8.83
2023-03-04T23:06:36.305Z,8.61
2023-03-04T23:09:05.017Z,9.18
2023-03-04T23:11:35.469Z,8.59
2023-03-04T23:14:06.647Z,8.79
2023-03-04T23:16:38.679Z,8.95
2023-03-04T23:19:07.350Z,9.37
2023-03-04T23:21:38.228Z,8.53
2023-03-04T23:24:08.356Z,8.78
2023-03-04T23:26:38.811Z,9.29
2023-03-04T23:29:08.616Z,9.19
2023-03-04T23:31:38.638Z,9.07
2023-03-04T23:34:07.384Z,9.23
2023-03-04T23:36:38.161Z,8.83
2023-03-04T23:39:07.860Z,8.72
2023-03-04T23:41:36.682Z,8.93
2023-03-04T23:44:05.447Z,9.13
2023-03-04T23:46:33.308Z,8.90
2023-03-04T23:49:02.569Z,8.73
2023-03-04T23:51:31.216Z,9.27
2023-03-04T23:54:00.294Z,8.81
2023-03-04T23:56:30.012Z,9.56
2023-03-04T23:58:59.210Z,8.19
